Time;durP1;ratioP1;P1;durP2;ratioP2;P2;SDS_P1;SDS_P2;PMS_P1;PMS_P2;Temp;Humidity;BMP_temperature;BMP_pressure;BME280_temperature;BME280_humidity;BME280_pressure;Samples;Min_cycle;Max_cycle;Signal;HPM_P1;HPM_P2
2022/04/25 00:00:56;;;;;;;13.90;12.43;;;;;;;10.41;55.32;98958.41;10317270;28;20109;-80
2022/04/25 00:05:57;;;;;;;13.30;11.95;;;;;;;10.43;55.35;98956.50;10337163;28;20369;-81
2022/04/25 00:10:59;;;;;;;15.32;13.73;;;;;;;10.08;56.14;98960.03;10348453;28;20101;-80
2022/04/25 00:16:01;;;;;;;14.18;12.65;;;;;;;9.86;56.40;98965.16;10317954;28;20140;-81
2022/04/25 00:21:03;;;;;;;13.80;12.40;;;;;;;9.75;56.62;98972.94;10330576;28;20046;-80
2022/04/25 00:26:06;;;;;;;14.07;12.57;;;;;;;9.82;55.99;98966.31;10339899;28;20602;-80
2022/04/25 00:31:07;;;;;;;15.43;13.60;;;;;;;9.57;56.63;98969.81;10325305;28;20089;-80
2022/04/25 00:36:09;;;;;;;14.52;12.43;;;;;;;9.57;56.84;98978.47;10340926;28;20127;-80
2022/04/25 00:41:11;;;;;;;15.85;12.77;;;;;;;9.47;56.98;98977.47;10333105;28;20093;-80
2022/04/25 00:46:20;;;;;;;18.55;14.57;;;;;;;9.53;57.42;98968.34;10336397;28;20889;-80
2022/04/25 00:51:23;;;;;;;16.00;14.30;;;;;;;9.49;56.90;98972.97;10336055;28;20050;-81
2022/04/25 00:56:26;;;;;;;16.52;14.63;;;;;;;9.45;57.16;98971.50;10335363;28;20077;-81
2022/04/25 01:01:28;;;;;;;16.83;14.90;;;;;;;9.53;56.97;98969.19;10324020;28;20054;-81
2022/04/25 01:06:30;;;;;;;17.98;15.45;;;;;;;9.44;57.13;98961.19;10323693;28;20054;-81
2022/04/25 01:11:32;;;;;;;17.10;15.32;;;;;;;9.25;57.77;98963.41;10341351;28;20057;-81
2022/04/25 01:16:34;;;;;;;16.38;14.70;;;;;;;9.27;57.90;98964.13;10328216;28;20516;-81
2022/04/25 01:22:11;;;;;;;17.63;15.68;;;;;;;8.97;58.90;98956.66;10326540;28;20065;-81
2022/04/25 01:27:18;;;;;;;19.20;17.13;;;;;;;8.77;58.78;98958.00;10333040;28;20065;-81
2022/04/25 01:32:24;;;;;;;19.30;14.57;;;;;;;8.70;58.81;98961.13;10320606;28;20798;-81
2022/04/25 01:37:26;;;;;;;22.38;16.17;;;;;;;8.65;58.74;98966.66;10329929;28;20119;-81
2022/04/25 01:42:28;;;;;;;18.23;16.05;;;;;;;8.56;59.22;98976.88;10325590;28;20594;-81
2022/04/25 01:47:29;;;;;;;19.50;17.33;;;;;;;8.50;59.27;98985.09;10329765;28;20116;-81
2022/04/25 01:52:33;;;;;;;20.17;17.30;;;;;;;8.66;59.09;98989.19;10343556;28;20545;-81
2022/04/25 01:57:35;;;;;;;22.58;18.33;;;;;;;8.64;59.01;98996.28;10344800;28;20208;-80
2022/04/25 02:02:37;;;;;;;19.17;14.82;;;;;;;8.80;58.84;99009.09;10330065;28;20400;-80
2022/04/25 02:07:39;;;;;;;18.42;16.50;;;;;;;8.88;59.13;99014.63;10330214;28;20054;-80
2022/04/25 02:12:43;;;;;;;17.63;15.02;;;;;;;8.92;59.43;99036.97;10334366;28;20173;-80
2022/04/25 02:17:45;;;;;;;17.25;15.45;;;;;;;8.94;59.37;99039.47;10326456;28;20540;-81
2022/04/25 02:22:47;;;;;;;17.48;15.65;;;;;;;9.18;58.84;99037.81;10347280;28;20935;-80
2022/04/25 02:27:49;;;;;;;17.92;15.38;;;;;;;9.33;58.46;99042.81;10338788;28;20112;-81
2022/04/25 02:32:51;;;;;;;16.77;14.43;;;;;;;9.41;58.50;99050.13;10337021;28;20058;-81
2022/04/25 02:37:53;;;;;;;19.52;17.08;;;;;;;9.50;59.20;99044.28;10337887;28;20134;-81
2022/04/25 02:42:55;;;;;;;22.42;18.65;;;;;;;9.49;59.97;99045.19;10341158;28;20050;-82
2022/04/25 02:47:57;;;;;;;23.67;20.83;;;;;;;9.40;60.60;99056.28;10342388;28;20062;-81
2022/04/25 02:52:59;;;;;;;25.05;21.52;;;;;;;9.43;61.40;99041.25;10329058;28;20120;-81
2022/04/25 02:58:00;;;;;;;31.77;24.98;;;;;;;9.27;61.59;99042.41;10336026;28;20570;-82
2022/04/25 03:03:02;;;;;;;28.08;24.05;;;;;;;9.09;62.47;99022.78;10334558;28;20042;-81
2022/04/25 03:08:04;;;;;;;31.02;26.25;;;;;;;8.96;63.51;99028.00;10317833;28;20149;-81
2022/04/25 03:13:06;;;;;;;26.65;23.77;;;;;;;8.77;63.40;99017.16;10325717;28;20613;-81
2022/04/25 03:18:10;;;;;;;31.60;26.38;;;;;;;8.28;65.17;99019.50;10321396;28;20563;-81
2022/04/25 03:23:14;;;;;;;23.20;20.73;;;;;;;8.13;65.75;99022.28;10325293;28;20109;-82
2022/04/25 03:28:17;;;;;;;24.35;21.70;;;;;;;8.37;65.39;99023.28;10325926;28;20108;-81
2022/04/25 03:33:19;;;;;;;20.30;16.50;;;;;;;8.62;64.70;99019.00;10339576;28;20062;-81
2022/04/25 03:38:21;;;;;;;20.80;18.10;;;;;;;8.71;64.29;99012.31;10335035;28;20065;-81
2022/04/25 03:43:24;;;;;;;17.15;15.35;;;;;;;8.79;64.02;99026.50;10331990;28;20169;-81
2022/04/25 03:48:26;;;;;;;37.47;27.60;;;;;;;8.94;64.47;99032.47;10327115;28;20112;-81
2022/04/25 03:53:28;;;;;;;23.83;20.02;;;;;;;8.84;64.10;99040.09;10335939;28;20060;-81
2022/04/25 03:58:30;;;;;;;29.40;24.15;;;;;;;8.71;64.28;99043.59;10328090;28;20058;-82
2022/04/25 04:03:35;;;;;;;29.63;24.70;;;;;;;8.91;64.83;99045.75;10310944;28;20084;-81
2022/04/25 04:08:37;;;;;;;36.63;28.60;;;;;;;8.95;64.92;99062.00;10327139;28;20145;-82
2022/04/25 04:13:39;;;;;;;28.05;24.30;;;;;;;8.93;65.08;99067.34;10327473;28;20109;-81
2022/04/25 04:18:41;;;;;;;27.80;23.63;;;;;;;9.08;64.93;99075.88;10320132;28;20125;-80
2022/04/25 04:23:43;;;;;;;21.98;19.13;;;;;;;9.10;64.54;99077.44;10312430;28;20051;-81
2022/04/25 04:28:45;;;;;;;22.13;18.92;;;;;;;9.00;64.45;99086.84;10334393;28;20144;-81
2022/04/25 04:33:47;;;;;;;24.23;20.23;;;;;;;9.14;64.45;99084.13;10337880;28;20774;-81
2022/04/25 04:38:49;;;;;;;23.95;19.08;;;;;;;9.26;64.22;99080.69;10325263;28;20495;-81
2022/04/25 04:43:50;;;;;;;23.13;19.45;;;;;;;9.25;63.95;99086.88;10326884;28;20058;-80
2022/04/25 04:48:52;;;;;;;26.08;20.08;;;;;;;9.23;64.38;99091.34;10331726;28;20519;-80
2022/04/25 04:53:54;;;;;;;24.27;19.63;;;;;;;9.22;64.26;99094.88;10342040;28;20046;-81
2022/04/25 04:58:56;;;;;;;22.35;18.20;;;;;;;9.28;63.78;99102.28;10320947;28;20062;-80
2022/04/25 05:03:58;;;;;;;26.38;19.08;;;;;;;9.22;63.94;99100.09;10335635;28;20148;-81
2022/04/25 05:09:00;;;;;;;24.33;20.30;;;;;;;9.17;63.99;99117.84;10331743;28;20602;-81
2022/04/25 05:14:08;;;;;;;34.67;24.58;;;;;;;9.23;63.93;99114.84;10337800;28;20057;-81
2022/04/25 05:19:09;;;;;;;58.58;34.58;;;;;;;9.31;63.88;99112.53;10330208;28;20081;-81
2022/04/25 05:24:11;;;;;;;28.25;23.77;;;;;;;9.35;63.75;99110.56;10344406;28;20144;-81
2022/04/25 05:29:14;;;;;;;31.10;24.83;;;;;;;9.42;63.59;99120.47;10334287;28;20079;-81
2022/04/25 05:34:16;;;;;;;40.10;26.60;;;;;;;9.54;63.40;99109.19;10323699;28;20415;-81
2022/04/25 05:39:17;;;;;;;27.15;21.17;;;;;;;9.66;63.35;99115.41;10333777;28;20132;-81
2022/04/25 05:44:19;;;;;;;29.65;22.10;;;;;;;9.79;63.11;99113.59;10336937;28;20161;-81
2022/04/25 05:54:41;;;;;;;20.52;17.70;;;;;;;9.93;62.68;99129.13;10330198;28;20049;-80
2022/04/25 05:59:43;;;;;;;17.40;15.15;;;;;;;10.46;62.10;99133.22;10326985;28;20049;-81
2022/04/25 06:04:45;;;;;;;20.83;18.35;;;;;;;11.00;60.75;99123.94;10322870;28;20053;-81
2022/04/25 06:09:47;;;;;;;18.35;16.38;;;;;;;11.69;59.77;99132.69;10325698;28;20201;-81
2022/04/25 06:14:52;;;;;;;16.85;15.05;;;;;;;12.11;58.99;99140.66;10344633;28;20577;-81
2022/04/25 06:19:54;;;;;;;15.63;12.95;;;;;;;12.57;58.07;99130.03;10330665;28;20136;-81
2022/04/25 06:24:56;;;;;;;13.20;11.88;;;;;;;12.91;57.61;99141.22;10322165;28;20148;-81
2022/04/25 06:29:57;;;;;;;11.52;9.93;;;;;;;12.93;57.20;99145.41;10339718;28;20058;-81
2022/04/25 06:35:05;;;;;;;10.88;8.85;;;;;;;13.07;56.51;99148.69;10332475;28;20512;-81
2022/04/25 06:40:07;;;;;;;10.57;8.82;;;;;;;13.00;55.74;99150.16;10327909;28;20664;-81
2022/04/25 06:45:09;;;;;;;11.38;10.18;;;;;;;13.12;55.92;99159.63;10331572;28;20460;-81
2022/04/25 06:50:11;;;;;;;10.75;8.85;;;;;;;13.31;55.26;99157.16;10320815;28;20108;-81
2022/04/25 06:55:13;;;;;;;9.50;8.50;;;;;;;13.49;55.34;99153.03;10314394;28;20554;-81
2022/04/25 07:00:17;;;;;;;10.40;8.55;;;;;;;13.70;54.25;99165.19;10323231;28;20050;-81
2022/04/25 07:05:35;;;;;;;9.13;8.30;;;;;;;13.44;54.58;99168.34;10321711;28;20058;-82
2022/04/25 07:10:37;;;;;;;9.23;8.32;;;;;;;13.36;54.61;99176.84;10315254;28;20054;-81
2022/04/25 07:15:39;;;;;;;9.07;7.90;;;;;;;13.24;54.93;99177.00;10315727;28;20140;-81
2022/04/25 07:20:41;;;;;;;9.38;7.97;;;;;;;13.19;55.21;99185.25;10329874;28;20089;-81
2022/04/25 07:31:03;;;;;;;9.63;8.55;;;;;;;12.94;55.72;99189.03;10322640;28;20058;-81
2022/04/25 07:36:05;;;;;;;9.13;8.15;;;;;;;12.88;55.63;99188.72;10322504;28;20362;-81
2022/04/25 07:41:10;;;;;;;24.08;9.07;;;;;;;12.53;56.12;99194.19;10329891;28;20092;-81
2022/04/25 07:46:15;;;;;;;20.33;8.57;;;;;;;12.19;56.89;99189.88;10313939;28;20416;-81
2022/04/25 07:51:42;;;;;;;9.82;8.07;;;;;;;12.38;56.94;99195.38;10309286;28;20053;-82
2022/04/25 07:56:43;;;;;;;10.27;6.90;;;;;;;12.63;55.84;99200.34;10331064;28;20053;-82
2022/04/25 08:01:46;;;;;;;8.13;6.93;;;;;;;13.07;54.91;99193.31;10315956;28;20105;-81
2022/04/25 08:06:47;;;;;;;8.65;7.43;;;;;;;13.02;54.84;99200.72;10324059;28;20104;-81
2022/04/25 08:17:56;;;;;;;8.43;7.47;;;;;;;12.98;54.95;99197.53;10334544;28;20459;-81
2022/04/25 08:22:32;;;;;;;8.25;7.30;;;;;;;12.32;56.25;99211.59;10328416;28;20397;-81
2022/04/25 08:27:33;;;;;;;8.60;7.60;;;;;;;12.35;56.62;99213.16;10347398;28;20120;-81
2022/04/25 08:32:35;;;;;;;8.55;7.60;;;;;;;12.34;57.07;99222.78;10335278;28;20116;-81
2022/04/25 08:37:37;;;;;;;8.98;6.70;;;;;;;12.19;55.37;99229.22;10353600;28;20058;-81
2022/04/25 08:42:39;;;;;;;8.50;7.47;;;;;;;12.20;55.50;99236.09;10324706;28;20050;-81
2022/04/25 08:47:53;;;;;;;8.75;7.85;;;;;;;12.59;55.90;99235.66;10336305;28;20253;-81
2022/04/25 08:52:56;;;;;;;9.13;7.57;;;;;;;12.78;54.27;99235.84;10336281;28;20522;-82
2022/04/25 08:58:00;;;;;;;9.20;8.27;;;;;;;12.98;54.72;99243.94;10336338;28;20116;-81
2022/04/25 09:03:01;;;;;;;8.70;7.45;;;;;;;12.77;54.05;99242.06;10332591;28;20574;-81
2022/04/25 09:08:04;;;;;;;8.07;7.28;;;;;;;12.63;54.21;99249.34;10337142;28;20058;-82
2022/04/25 09:13:06;;;;;;;10.13;7.60;;;;;;;12.83;54.38;99246.81;10326229;28;20441;-82
2022/04/25 09:18:09;;;;;;;9.48;7.82;;;;;;;13.52;53.35;99253.44;10339917;28;20480;-82
2022/04/25 09:23:21;;;;;;;10.70;7.78;;;;;;;14.16;52.73;99259.41;10321888;28;20128;-82
2022/04/25 09:28:23;;;;;;;8.68;7.07;;;;;;;14.53;50.46;99257.13;10326495;28;20419;-82
2022/04/25 09:33:25;;;;;;;7.93;7.15;;;;;;;14.40;50.04;99257.31;10318447;28;20326;-82
2022/04/25 09:38:32;;;;;;;9.63;7.88;;;;;;;14.38;50.47;99253.97;10341285;28;20120;-81
2022/04/25 09:43:42;;;;;;;9.43;8.00;;;;;;;14.25;51.61;99258.59;10325663;28;20061;-81
2022/04/25 09:49:02;;;;;;;10.82;8.05;;;;;;;14.23;49.25;99268.41;10320118;28;20574;-81
2022/04/25 09:54:04;;;;;;;10.95;8.05;;;;;;;14.10;50.12;99264.34;10316183;28;20097;-81
2022/04/25 09:59:09;;;;;;;9.10;7.80;;;;;;;14.83;49.21;99272.03;10320181;28;20084;-81
2022/04/25 10:04:34;;;;;;;9.10;7.18;;;;;;;15.25;47.10;99270.84;10333573;28;20396;-81
2022/04/25 10:09:36;;;;;;;8.75;6.88;;;;;;;15.47;46.50;99269.78;10314745;28;20049;-81
2022/04/25 10:14:39;;;;;;;7.75;6.90;;;;;;;15.87;47.05;99273.97;10340572;28;20061;-81
2022/04/25 10:19:43;;;;;;;8.57;6.82;;;;;;;15.41;45.36;99271.97;10333385;28;20077;-81
2022/04/25 10:24:45;;;;;;;9.77;7.10;;;;;;;15.25;46.69;99273.50;10338347;28;20053;-81
2022/04/25 10:29:51;;;;;;;7.80;7.00;;;;;;;15.33;45.41;99277.13;10325462;28;20104;-81
2022/04/25 10:34:56;;;;;;;8.57;6.47;;;;;;;16.37;44.08;99265.75;10319450;28;20106;-81
2022/04/25 10:39:59;;;;;;;9.73;6.68;;;;;;;16.53;42.41;99258.13;10311333;28;20062;-82
2022/04/25 10:45:02;;;;;;;7.25;6.47;;;;;;;16.25;43.10;99246.66;10338562;28;20049;-81
2022/04/25 10:50:08;;;;;;;8.50;6.72;;;;;;;16.09;43.39;99249.06;10335294;28;20512;-81
2022/04/25 11:00:49;;;;;;;9.25;7.13;;;;;;;15.34;45.04;99262.97;10331755;28;20096;-81
2022/04/25 11:05:55;;;;;;;11.57;6.80;;;;;;;14.79;45.83;99276.72;10322690;28;20419;-81
2022/04/25 11:10:57;;;;;;;7.30;6.55;;;;;;;15.23;44.58;99267.53;10331006;28;20592;-82
2022/04/25 11:16:13;;;;;;;7.40;6.63;;;;;;;15.63;44.84;99265.66;10322368;28;20086;-80
2022/04/25 11:21:16;;;;;;;7.90;6.90;;;;;;;15.74;45.17;99264.66;10325754;28;20523;-81
2022/04/25 11:26:21;;;;;;;9.10;7.30;;;;;;;15.67;45.05;99261.78;10315533;28;20062;-82
2022/04/25 11:31:23;;;;;;;10.45;7.78;;;;;;;15.50;45.60;99266.88;10315928;28;20112;-81
2022/04/25 11:36:25;;;;;;;11.82;7.10;;;;;;;15.75;44.99;99271.59;10320527;28;20108;-81
2022/04/25 11:41:29;;;;;;;8.43;7.25;;;;;;;15.62;43.79;99271.88;10330941;28;20050;-81
2022/04/25 11:46:32;;;;;;;9.15;7.05;;;;;;;15.21;44.97;99272.09;10308422;28;20082;-81
2022/04/25 11:51:39;;;;;;;8.38;6.68;;;;;;;15.08;45.77;99280.25;10333014;28;21334;-81
2022/04/25 11:56:41;;;;;;;8.27;6.60;;;;;;;14.47;45.89;99286.56;10336659;28;20107;-81
2022/04/25 12:01:48;;;;;;;8.00;6.45;;;;;;;14.42;45.86;99292.19;10344042;28;20085;-81
2022/04/25 12:07:00;;;;;;;9.35;6.95;;;;;;;14.49;46.77;99306.50;10337343;28;20058;-81
2022/04/25 12:17:23;;;;;;;8.10;6.35;;;;;;;14.12;46.69;99310.59;10330623;28;20111;-81
2022/04/25 12:22:25;;;;;;;7.60;6.43;;;;;;;13.95;46.62;99313.78;10322435;28;20144;-81
2022/04/25 12:27:27;;;;;;;9.10;6.68;;;;;;;13.79;48.38;99318.66;10334087;28;20136;-81
2022/04/25 12:32:28;;;;;;;9.13;6.50;;;;;;;13.78;49.45;99328.31;10323224;28;20417;-81
2022/04/25 12:37:40;;;;;;;8.55;6.28;;;;;;;13.03;51.53;99357.28;10322981;28;20496;-82
2022/04/25 12:42:46;;;;;;;9.68;7.10;;;;;;;12.31;53.66;99362.00;10327829;28;20086;-81
2022/04/25 12:47:58;;;;;;;8.10;7.10;;;;;;;12.02;55.11;99374.66;10333943;28;20519;-81
2022/04/25 12:53:00;;;;;;;14.25;7.43;;;;;;;11.65;55.36;99374.81;10322507;28;20396;-82
2022/04/25 12:58:02;;;;;;;16.98;8.20;;;;;;;11.53;54.95;99362.63;10322884;28;20107;-82
2022/04/25 13:03:04;;;;;;;13.77;8.88;;;;;;;11.52;58.55;99335.59;10329496;28;20149;-81
2022/04/25 13:08:06;;;;;;;9.25;7.93;;;;;;;11.96;58.49;99332.34;10329637;28;20211;-82
2022/04/25 13:13:09;;;;;;;10.85;8.75;;;;;;;12.31;58.26;99330.53;10337634;28;20132;-82
2022/04/25 13:18:11;;;;;;;9.00;7.70;;;;;;;12.75;58.82;99327.94;10320595;28;20536;-81
2022/04/25 13:23:12;;;;;;;7.70;6.70;;;;;;;12.67;58.10;99306.72;10343712;28;20108;-82
2022/04/25 13:28:14;;;;;;;7.55;6.43;;;;;;;12.94;56.58;99308.97;10321787;28;20058;-82
2022/04/25 13:33:16;;;;;;;10.32;7.97;;;;;;;12.84;57.72;99298.34;10332284;28;20072;-81
2022/04/25 13:38:18;;;;;;;10.55;8.15;;;;;;;13.18;57.58;99293.03;10324133;28;20054;-81
2022/04/25 13:43:19;;;;;;;9.77;7.88;;;;;;;13.00;56.23;99292.72;10326470;28;20089;-82
2022/04/25 13:48:24;;;;;;;10.60;7.88;;;;;;;13.37;56.07;99298.47;10324549;28;20599;-81
2022/04/25 13:53:26;;;;;;;11.13;7.53;;;;;;;13.33;54.47;99307.56;10326479;28;20463;-82
2022/04/25 13:58:28;;;;;;;8.90;7.10;;;;;;;13.00;55.04;99315.50;10341752;28;20092;-81
2022/04/25 14:03:30;;;;;;;9.50;7.00;;;;;;;13.15;54.72;99306.44;10327357;28;20049;-81
2022/04/25 14:08:32;;;;;;;9.23;7.30;;;;;;;13.58;54.87;99312.50;10337529;28;20240;-81
2022/04/25 14:13:34;;;;;;;7.07;5.40;;;;;;;14.08;51.19;99282.88;10325416;28;20062;-81
2022/04/25 14:18:36;;;;;;;7.32;5.47;;;;;;;14.00;51.12;99280.06;10331934;28;20112;-81
2022/04/25 14:23:38;;;;;;;6.05;4.90;;;;;;;13.83;51.23;99278.00;10327229;28;21010;-81
2022/04/25 14:28:40;;;;;;;5.82;4.93;;;;;;;14.13;51.70;99275.44;10338818;28;20065;-81
2022/04/25 14:34:02;;;;;;;5.80;4.95;;;;;;;14.18;49.79;99296.91;10324064;28;20821;-82
2022/04/25 14:39:04;;;;;;;6.65;5.32;;;;;;;14.02;50.15;99308.84;10328804;28;20307;-81
2022/04/25 14:44:06;;;;;;;8.48;5.50;;;;;;;13.78;50.13;99306.44;10329486;28;20193;-82
2022/04/25 14:49:07;;;;;;;6.43;5.30;;;;;;;13.66;49.70;99303.03;10332307;28;20511;-82
2022/04/25 14:54:21;;;;;;;8.57;5.78;;;;;;;13.57;50.73;99308.22;10326687;28;20056;-81
2022/04/25 14:59:23;;;;;;;6.70;5.38;;;;;;;13.40;50.68;99311.34;10328236;28;20151;-81
2022/04/25 15:04:25;;;;;;;7.72;6.00;;;;;;;13.40;51.64;99329.75;10335258;28;20127;-81
2022/04/25 15:09:29;;;;;;;7.07;5.85;;;;;;;13.07;53.01;99328.03;10337739;28;20068;-81
2022/04/25 15:14:31;;;;;;;9.65;6.70;;;;;;;13.00;54.42;99339.13;10323016;28;20053;-81
2022/04/25 15:19:34;;;;;;;9.50;8.23;;;;;;;12.96;57.51;99376.09;10321960;28;20058;-81
2022/04/25 15:24:37;;;;;;;10.05;7.68;;;;;;;12.54;58.83;99389.94;10320210;28;20061;-81
2022/04/25 15:29:40;;;;;;;9.18;7.60;;;;;;;12.13;59.64;99400.03;10327745;28;20054;-80
2022/04/25 15:34:47;;;;;;;13.32;9.63;;;;;;;11.84;60.83;99406.59;10328872;28;20140;-81
2022/04/25 15:39:49;;;;;;;11.13;9.95;;;;;;;11.69;61.05;99411.16;10339741;28;20327;-81
2022/04/25 15:44:51;;;;;;;9.48;8.48;;;;;;;11.53;60.85;99420.25;10333871;28;20128;-81
2022/04/25 15:49:53;;;;;;;8.55;7.65;;;;;;;11.30;61.00;99408.78;10327875;28;20057;-81
2022/04/25 16:00:17;;;;;;;10.13;7.83;;;;;;;11.22;60.89;99406.72;10327332;28;20113;-81
2022/04/25 16:05:21;;;;;;;9.98;8.95;;;;;;;11.15;61.57;99413.31;10327001;28;20057;-81
2022/04/25 16:10:23;;;;;;;10.43;8.13;;;;;;;11.09;61.67;99399.84;10330249;28;20564;-82
2022/04/25 16:15:27;;;;;;;9.77;8.27;;;;;;;11.30;61.35;99409.63;10326592;28;20463;-81
2022/04/25 16:20:30;;;;;;;10.13;8.68;;;;;;;11.65;61.48;99414.13;10324462;28;20057;-82
2022/04/25 16:25:32;;;;;;;10.20;8.63;;;;;;;11.81;60.46;99414.69;10315352;28;20058;-81
2022/04/25 16:30:34;;;;;;;10.00;8.93;;;;;;;11.89;60.35;99413.19;10325266;28;20140;-81
2022/04/25 16:35:37;;;;;;;10.85;8.48;;;;;;;11.90;60.54;99408.78;10322091;28;20164;-81
2022/04/25 16:40:39;;;;;;;9.32;8.05;;;;;;;11.95;59.81;99412.72;10328705;28;20054;-81
2022/04/25 16:45:42;;;;;;;11.30;9.00;;;;;;;11.74;60.35;99418.72;10333021;28;20082;-81
2022/04/25 16:50:44;;;;;;;15.30;9.88;;;;;;;11.48;60.85;99419.75;10338035;28;20512;-81
2022/04/25 16:55:45;;;;;;;12.13;10.82;;;;;;;11.03;62.22;99411.53;10326018;28;20050;-81
2022/04/25 17:00:47;;;;;;;12.23;10.45;;;;;;;10.96;62.33;99405.06;10335241;28;20503;-81
2022/04/25 17:05:54;;;;;;;11.70;10.50;;;;;;;10.83;62.62;99408.59;10329590;28;20497;-81
2022/04/25 17:10:56;;;;;;;11.15;8.43;;;;;;;10.79;62.22;99402.75;10336702;28;20050;-81
2022/04/25 17:15:58;;;;;;;9.98;8.98;;;;;;;10.93;61.80;99404.44;10346377;28;20057;-81
2022/04/25 17:21:03;;;;;;;9.65;8.25;;;;;;;10.96;61.66;99410.28;10330658;28;20054;-80
2022/04/25 17:26:09;;;;;;;10.38;8.10;;;;;;;11.08;61.71;99406.00;10324580;28;20128;-81
